Patten, Maine
Current Conditions -  °F | °C
As of 12:53 PM on Friday 19 Dec 2014 (Local Time) from KHUL Reporting Station
Broken Clouds Broken Clouds  
Wind Chill: 19°   Ceiling: 3700
Heat Index: 28°   Visibility: 10mi
Dew Point: 19°   Wind: 10mph
Humidity: 69%   Direction: 330°NNW
Pressure: 29.83"   Gusts: NA
Location:  45.99°N, 68.45°W
Report Text: KHUL 191753Z AUTO 33009KT 10SM BKN037 M02/M07 A2983 RMK AO2 SLP108 T10221072 11022 21044 55000
Loading
Personal Weather Stations






























Interactive Weather Map New forecast layout! Learn more

10-Day Weather Forecast

Advertisements
Track Severe Weather on mobile